Terminal Aerodrome Forecast
Issued by NWS

Current Version | Previous Version | Graphics & Text | Print | Product List | Glossary On
Versions: 1 2 3 4 5 6 7 8 9 10 11 12 13 14 15 16 17 18 19
000
FTUS41 KILN 011500 AAA
TAFLCK
TAF AMD
KLCK 011512Z 0115/0212 00000KT P6SM OVC008
     FM011600 07005KT P6SM BKN025
     FM012000 08003KT P6SM SCT025
     FM012200 VRB03KT P6SM SKC
     FM021000 14004KT P6SM SCT250=

USA.gov is the U.S. government's official web portal to all federal, state and local government web resources and services.